createdAt,value
2023-12-07T00:02:26.665Z,2.40
2023-12-07T00:04:53.501Z,2.40
2023-12-07T00:07:20.209Z,2.40
2023-12-07T00:09:46.962Z,2.40
2023-12-07T00:12:13.625Z,2.40
2023-12-07T00:14:40.312Z,2.40
2023-12-07T00:17:07.210Z,2.40
2023-12-07T00:19:33.884Z,2.40
2023-12-07T00:22:00.751Z,2.40
2023-12-07T00:24:27.509Z,2.40
2023-12-07T00:26:54.149Z,2.40
2023-12-07T00:29:20.782Z,2.40
2023-12-07T00:31:47.703Z,2.40
2023-12-07T00:34:14.431Z,2.40
2023-12-07T00:36:41.816Z,2.40
2023-12-07T00:39:09.794Z,2.40
2023-12-07T00:41:36.472Z,2.40
2023-12-07T00:44:03.204Z,2.40
2023-12-07T00:46:29.917Z,2.40
2023-12-07T00:48:56.614Z,2.40
2023-12-07T00:51:23.263Z,2.40
2023-12-07T00:53:49.940Z,2.40
2023-12-07T00:56:16.626Z,2.40
2023-12-07T00:58:43.258Z,2.40
2023-12-07T01:01:10.080Z,2.40
2023-12-07T01:03:36.866Z,2.50
2023-12-07T01:06:04.221Z,2.40
2023-12-07T01:08:31.188Z,2.40
2023-12-07T01:10:57.887Z,2.40
2023-12-07T01:13:24.846Z,2.40
2023-12-07T01:15:52.109Z,2.40
2023-12-07T01:18:18.835Z,2.50
2023-12-07T01:20:45.580Z,2.50
2023-12-07T01:23:15.339Z,2.50
2023-12-07T01:25:43.257Z,2.50
2023-12-07T01:28:10.669Z,2.60
2023-12-07T01:30:37.531Z,2.50
2023-12-07T01:33:04.352Z,2.50
2023-12-07T01:35:31.035Z,2.60
2023-12-07T01:37:57.711Z,2.50
2023-12-07T01:40:24.396Z,2.40
2023-12-07T01:42:55.041Z,2.50
2023-12-07T01:45:21.921Z,2.50
2023-12-07T01:47:51.550Z,2.50
2023-12-07T01:50:24.394Z,2.40
2023-12-07T01:52:55.898Z,2.50
2023-12-07T01:55:24.196Z,2.40
2023-12-07T01:57:51.194Z,2.50
2023-12-07T02:00:18.306Z,2.50
2023-12-07T02:02:46.787Z,2.50
2023-12-07T02:05:14.926Z,2.50
2023-12-07T02:07:44.832Z,2.50
2023-12-07T02:10:12.236Z,2.40
2023-12-07T02:12:39.021Z,2.40
2023-12-07T02:15:07.579Z,2.40
2023-12-07T02:17:43.406Z,2.40
2023-12-07T02:20:16.378Z,2.40
2023-12-07T02:22:53.231Z,2.40
2023-12-07T02:25:27.306Z,2.40
2023-12-07T02:27:54.078Z,2.40
2023-12-07T02:30:20.708Z,2.40
2023-12-07T02:32:47.576Z,2.40
2023-12-07T02:35:14.612Z,2.50
2023-12-07T02:37:50.430Z,2.50
2023-12-07T02:40:24.883Z,2.50
2023-12-07T02:42:52.345Z,2.50
2023-12-07T02:45:19.169Z,2.50
2023-12-07T02:47:46.372Z,2.50
2023-12-07T02:50:14.329Z,2.50
2023-12-07T02:52:41.652Z,2.50
2023-12-07T02:55:08.794Z,2.40
2023-12-07T02:57:35.610Z,2.40
2023-12-07T03:00:08.892Z,2.40
2023-12-07T03:02:40.473Z,2.50
2023-12-07T03:05:08.077Z,2.50
2023-12-07T03:07:35.693Z,2.50
2023-12-07T03:10:03.870Z,2.50
2023-12-07T03:12:30.630Z,2.50
2023-12-07T03:14:57.417Z,2.50
2023-12-07T03:17:24.480Z,2.40
2023-12-07T03:19:51.125Z,2.50
2023-12-07T03:22:17.835Z,2.40
2023-12-07T03:24:51.954Z,2.50
2023-12-07T03:27:18.698Z,2.40
2023-12-07T03:29:45.399Z,2.50
2023-12-07T03:32:12.087Z,2.50
2023-12-07T03:34:38.782Z,2.40
2023-12-07T03:37:05.437Z,2.40
2023-12-07T03:39:33.753Z,2.40
2023-12-07T03:42:00.737Z,2.40
2023-12-07T03:44:30.466Z,2.40
2023-12-07T03:46:57.200Z,2.40
2023-12-07T03:49:24.303Z,2.40
2023-12-07T03:51:51.011Z,2.40
2023-12-07T03:54:18.097Z,2.30
2023-12-07T03:56:44.772Z,2.30
2023-12-07T03:59:11.486Z,2.30
2023-12-07T04:01:38.270Z,2.30
2023-12-07T04:04:05.894Z,2.30
2023-12-07T04:06:32.739Z,2.30
2023-12-07T04:08:59.485Z,2.30
2023-12-07T04:11:26.661Z,2.30
2023-12-07T04:13:53.277Z,2.40
2023-12-07T04:16:20.177Z,2.40
2023-12-07T04:18:46.867Z,2.40
2023-12-07T04:21:13.911Z,2.30
2023-12-07T04:23:40.545Z,2.30
2023-12-07T04:26:07.382Z,2.30
2023-12-07T04:28:34.097Z,2.30
2023-12-07T04:31:00.773Z,2.30
2023-12-07T04:33:27.609Z,2.30
2023-12-07T04:35:54.377Z,2.30
2023-12-07T04:38:21.020Z,2.30
2023-12-07T04:40:47.654Z,2.30
2023-12-07T04:43:14.301Z,2.30
2023-12-07T04:45:41.005Z,2.30
2023-12-07T04:48:07.802Z,2.30
2023-12-07T04:50:34.661Z,2.30
2023-12-07T04:53:01.371Z,2.30
2023-12-07T04:55:28.263Z,2.30
2023-12-07T04:57:54.953Z,2.30
2023-12-07T05:00:22.637Z,2.30
2023-12-07T05:02:49.731Z,2.30
2023-12-07T05:05:16.433Z,2.30
2023-12-07T05:07:43.260Z,2.30
2023-12-07T05:10:10.673Z,2.30
2023-12-07T05:12:37.754Z,2.30
2023-12-07T05:15:06.789Z,2.30
2023-12-07T05:17:33.915Z,2.30
2023-12-07T05:20:00.812Z,2.30
2023-12-07T05:22:27.998Z,2.30
2023-12-07T05:24:55.528Z,2.30
2023-12-07T05:27:22.400Z,2.30
2023-12-07T05:29:49.057Z,2.30
2023-12-07T05:32:15.719Z,2.30
2023-12-07T05:34:43.081Z,2.30
2023-12-07T05:37:09.768Z,2.30
2023-12-07T05:39:36.809Z,2.30
2023-12-07T05:42:05.214Z,2.30
2023-12-07T05:44:32.036Z,2.30
2023-12-07T05:46:58.671Z,2.20
2023-12-07T05:49:25.372Z,2.20
2023-12-07T05:51:53.791Z,2.30
2023-12-07T05:54:23.179Z,2.30
2023-12-07T05:56:50.056Z,2.40
2023-12-07T05:59:16.810Z,2.30
2023-12-07T06:01:44.181Z,2.30
2023-12-07T06:04:13.144Z,2.30
2023-12-07T06:06:40.208Z,2.30
2023-12-07T06:09:06.905Z,2.30
2023-12-07T06:11:34.821Z,2.30
2023-12-07T06:14:02.125Z,2.30
2023-12-07T06:16:28.793Z,2.30
2023-12-07T06:18:55.532Z,2.30
2023-12-07T06:21:22.510Z,2.30
2023-12-07T06:23:49.748Z,2.30
2023-12-07T06:26:16.873Z,2.30
2023-12-07T06:28:43.840Z,2.30
2023-12-07T06:31:10.801Z,2.30
2023-12-07T06:33:37.535Z,2.30
2023-12-07T06:36:04.657Z,2.30
2023-12-07T06:38:31.598Z,2.30
2023-12-07T06:40:58.716Z,2.30
2023-12-07T06:43:25.488Z,2.30
2023-12-07T06:45:53.395Z,2.30
2023-12-07T06:48:20.289Z,2.30
2023-12-07T06:50:47.021Z,2.30
2023-12-07T06:53:16.864Z,2.30
2023-12-07T06:55:45.641Z,2.30
2023-12-07T06:58:12.845Z,2.30
2023-12-07T07:00:39.660Z,2.30
2023-12-07T07:03:07.652Z,2.20
2023-12-07T07:05:34.561Z,2.20
2023-12-07T07:08:01.305Z,2.20
2023-12-07T07:10:28.055Z,2.20
2023-12-07T07:12:54.956Z,2.20
2023-12-07T07:15:21.692Z,2.20
2023-12-07T07:17:48.413Z,2.20
2023-12-07T07:20:15.215Z,2.20
2023-12-07T07:22:42.084Z,2.20
2023-12-07T07:25:09.755Z,2.20
2023-12-07T07:27:36.575Z,2.20
2023-12-07T07:30:05.321Z,2.20
2023-12-07T07:32:32.586Z,2.20
2023-12-07T07:34:59.493Z,2.30
2023-12-07T07:37:26.606Z,2.30
2023-12-07T07:39:53.466Z,2.30
2023-12-07T07:42:20.242Z,2.30
2023-12-07T07:44:46.917Z,2.20
2023-12-07T07:47:13.774Z,2.30
2023-12-07T07:49:40.506Z,2.30
2023-12-07T07:52:07.280Z,2.30
2023-12-07T07:54:34.016Z,2.30
2023-12-07T07:57:00.887Z,2.30
2023-12-07T07:59:28.018Z,2.30
2023-12-07T08:01:54.744Z,2.30
2023-12-07T08:04:21.703Z,2.40
2023-12-07T08:06:48.401Z,2.40
2023-12-07T08:09:15.122Z,2.40
2023-12-07T08:11:42.098Z,2.40
2023-12-07T08:14:09.128Z,2.40
2023-12-07T08:16:35.965Z,2.40
2023-12-07T08:19:02.958Z,2.40
2023-12-07T08:21:31.480Z,2.40
2023-12-07T08:23:58.509Z,2.40
2023-12-07T08:26:25.270Z,2.40
2023-12-07T08:28:54.867Z,2.40
2023-12-07T08:31:24.076Z,2.50
2023-12-07T08:33:52.250Z,2.40
2023-12-07T08:36:19.151Z,2.50
2023-12-07T08:38:45.841Z,2.50
2023-12-07T08:41:14.538Z,2.60
2023-12-07T08:43:41.750Z,2.60
2023-12-07T08:46:08.959Z,2.60
2023-12-07T08:48:42.287Z,2.70
2023-12-07T08:51:10.159Z,2.70
2023-12-07T08:53:36.824Z,2.70
2023-12-07T08:56:03.654Z,2.70
2023-12-07T08:58:30.414Z,2.70
2023-12-07T09:00:57.179Z,2.80
2023-12-07T09:03:28.406Z,2.80
2023-12-07T09:05:55.943Z,2.80
2023-12-07T09:08:23.160Z,2.80
2023-12-07T09:10:52.104Z,2.80
2023-12-07T09:13:19.505Z,2.80
2023-12-07T09:15:46.202Z,2.80
2023-12-07T09:18:13.074Z,2.80
2023-12-07T09:20:47.099Z,2.80
2023-12-07T09:23:16.036Z,2.80
2023-12-07T09:25:43.345Z,2.90
2023-12-07T09:28:10.123Z,2.90
2023-12-07T09:30:36.792Z,2.90
2023-12-07T09:33:06.460Z,2.90
2023-12-07T09:35:35.211Z,2.90
2023-12-07T09:38:02.040Z,2.90
2023-12-07T09:40:29.492Z,2.90
2023-12-07T09:42:56.221Z,2.90
2023-12-07T09:45:25.063Z,3.00
2023-12-07T09:47:53.838Z,3.10
2023-12-07T09:50:25.800Z,3.20
2023-12-07T09:53:04.809Z,3.20
2023-12-07T09:55:36.270Z,3.20
2023-12-07T09:58:08.806Z,3.20
2023-12-07T10:00:37.308Z,3.20
2023-12-07T10:03:05.282Z,3.20
2023-12-07T10:05:32.141Z,3.30
2023-12-07T10:07:58.866Z,3.30
2023-12-07T10:10:26.989Z,3.30
2023-12-07T10:12:56.181Z,3.30
2023-12-07T10:15:24.782Z,3.30
2023-12-07T10:17:57.988Z,3.30
2023-12-07T10:20:26.935Z,3.30
2023-12-07T10:23:10.234Z,3.30
2023-12-07T10:25:39.334Z,3.30
2023-12-07T10:28:08.678Z,3.40
2023-12-07T10:30:36.207Z,3.40
2023-12-07T10:33:08.341Z,3.50
2023-12-07T10:35:40.752Z,3.50
2023-12-07T10:38:08.325Z,3.50
2023-12-07T10:40:34.944Z,3.50
2023-12-07T10:43:08.591Z,3.50
2023-12-07T10:45:36.370Z,3.50
2023-12-07T10:48:06.560Z,3.60
2023-12-07T10:50:36.968Z,3.60
2023-12-07T10:53:11.028Z,3.60
2023-12-07T10:55:49.638Z,3.70
2023-12-07T10:58:18.570Z,3.80
2023-12-07T11:00:48.081Z,3.80
2023-12-07T11:03:18.425Z,3.80
2023-12-07T11:05:49.898Z,3.80
2023-12-07T11:08:35.257Z,3.90
2023-12-07T11:11:09.065Z,3.90
2023-12-07T11:13:38.654Z,3.80
2023-12-07T11:16:06.321Z,3.90
2023-12-07T11:18:33.246Z,3.90
2023-12-07T11:21:01.102Z,3.80
2023-12-07T11:23:31.968Z,3.90
2023-12-07T11:25:58.774Z,3.90
2023-12-07T11:28:39.830Z,3.90
2023-12-07T11:31:09.479Z,3.90
2023-12-07T11:33:40.463Z,4.00
2023-12-07T11:36:11.894Z,3.90
2023-12-07T11:38:39.394Z,3.90
2023-12-07T11:41:06.520Z,3.90
2023-12-07T11:43:42.842Z,4.00
2023-12-07T11:46:10.434Z,4.00
2023-12-07T11:48:37.239Z,4.00
2023-12-07T11:51:06.090Z,4.00
2023-12-07T11:53:34.990Z,4.10
2023-12-07T11:56:06.943Z,4.10
2023-12-07T11:58:38.498Z,4.10
2023-12-07T12:01:08.464Z,4.20
2023-12-07T12:03:35.572Z,4.20
2023-12-07T12:06:06.183Z,4.20
2023-12-07T12:08:33.355Z,4.30
2023-12-07T12:11:00.223Z,4.30
2023-12-07T12:13:31.656Z,4.40
2023-12-07T12:16:01.556Z,4.40
2023-12-07T12:18:30.313Z,4.30
2023-12-07T12:20:59.551Z,4.40
2023-12-07T12:23:26.310Z,4.40
2023-12-07T12:25:53.958Z,4.50
2023-12-07T12:28:23.492Z,4.60
2023-12-07T12:30:51.705Z,4.60
2023-12-07T12:33:18.443Z,4.70
2023-12-07T12:35:45.449Z,4.70
2023-12-07T12:38:18.158Z,4.60
2023-12-07T12:40:52.190Z,4.60
2023-12-07T12:43:19.007Z,4.60
2023-12-07T12:45:46.623Z,4.70
2023-12-07T12:48:31.160Z,4.70
2023-12-07T12:50:57.938Z,4.70
2023-12-07T12:53:26.842Z,4.80
2023-12-07T12:55:53.595Z,5.00
2023-12-07T12:58:21.597Z,5.10
2023-12-07T13:00:48.435Z,5.40
2023-12-07T13:03:15.369Z,5.40
2023-12-07T13:05:42.303Z,5.40
2023-12-07T13:08:14.619Z,5.40
2023-12-07T13:10:42.306Z,5.40
2023-12-07T13:13:09.337Z,5.40
2023-12-07T13:15:36.084Z,5.20
2023-12-07T13:18:05.706Z,5.40
2023-12-07T13:20:45.947Z,5.60
2023-12-07T13:23:20.330Z,5.80
2023-12-07T13:25:47.033Z,6.00
2023-12-07T13:28:13.797Z,6.10
2023-12-07T13:30:40.505Z,6.30
2023-12-07T13:33:18.531Z,6.30
2023-12-07T13:35:53.314Z,6.10
2023-12-07T13:38:21.450Z,5.90
2023-12-07T13:40:48.471Z,5.70
2023-12-07T13:43:15.216Z,5.30
2023-12-07T13:45:44.987Z,5.10
2023-12-07T13:48:13.889Z,4.80
2023-12-07T13:50:41.218Z,4.60
2023-12-07T13:53:11.367Z,4.30
2023-12-07T13:55:38.624Z,4.10
2023-12-07T13:58:06.138Z,3.90
2023-12-07T14:00:32.972Z,3.80
2023-12-07T14:02:59.884Z,3.70
2023-12-07T14:05:26.815Z,3.60
2023-12-07T14:07:53.932Z,3.50
2023-12-07T14:10:20.780Z,3.40
2023-12-07T14:12:47.474Z,3.20
2023-12-07T14:15:14.221Z,3.10
2023-12-07T14:17:47.597Z,3.00
2023-12-07T14:20:35.139Z,2.90
2023-12-07T14:23:09.102Z,2.80
2023-12-07T14:25:36.011Z,2.70
2023-12-07T14:28:02.898Z,2.60
2023-12-07T14:30:29.583Z,2.60
2023-12-07T14:32:56.754Z,2.60
2023-12-07T14:35:23.832Z,2.50
2023-12-07T14:37:51.318Z,2.50
2023-12-07T14:40:18.726Z,2.50
2023-12-07T14:42:46.395Z,2.40
2023-12-07T14:45:13.622Z,2.20
2023-12-07T14:47:40.616Z,2.20
2023-12-07T14:50:07.625Z,2.10
2023-12-07T14:52:35.737Z,2.10
2023-12-07T14:55:05.126Z,2.10
2023-12-07T14:57:32.714Z,2.00
2023-12-07T14:59:59.830Z,2.00
2023-12-07T15:02:27.282Z,2.00
2023-12-07T15:04:54.259Z,2.00
2023-12-07T15:07:20.925Z,2.00
2023-12-07T15:09:50.115Z,2.00
2023-12-07T15:12:19.629Z,2.00
2023-12-07T15:14:47.736Z,2.00
2023-12-07T15:17:14.748Z,2.00
2023-12-07T15:19:42.241Z,2.00
2023-12-07T15:22:12.695Z,1.90
2023-12-07T15:24:40.680Z,1.80
2023-12-07T15:27:08.870Z,1.80
2023-12-07T15:29:36.649Z,1.80
2023-12-07T15:32:04.900Z,1.80
2023-12-07T15:34:38.230Z,1.80
2023-12-07T15:37:08.061Z,1.80
2023-12-07T15:39:34.833Z,1.70
2023-12-07T15:42:02.910Z,1.70
2023-12-07T15:44:31.306Z,1.70
2023-12-07T15:46:59.334Z,1.70
2023-12-07T15:49:26.704Z,1.80
2023-12-07T15:51:56.359Z,1.80
2023-12-07T15:54:34.067Z,1.80
2023-12-07T15:57:06.080Z,1.70
2023-12-07T15:59:33.024Z,1.70
2023-12-07T16:01:59.767Z,1.60
2023-12-07T16:04:32.740Z,1.60
2023-12-07T16:07:04.969Z,1.50
2023-12-07T16:09:36.158Z,1.50
2023-12-07T16:12:03.600Z,1.50
2023-12-07T16:14:31.550Z,1.50
2023-12-07T16:17:00.100Z,1.40
2023-12-07T16:19:27.862Z,1.40
2023-12-07T16:21:55.276Z,1.40
2023-12-07T16:24:22.198Z,1.40
2023-12-07T16:26:49.633Z,1.30
2023-12-07T16:29:17.073Z,1.30
2023-12-07T16:31:43.825Z,1.20
2023-12-07T16:34:10.863Z,1.20
2023-12-07T16:36:37.842Z,1.10
2023-12-07T16:39:06.448Z,1.10
2023-12-07T16:41:38.981Z,1.10
2023-12-07T16:44:15.344Z,1.10
2023-12-07T16:46:43.979Z,1.00
2023-12-07T16:49:11.334Z,1.00
2023-12-07T16:51:40.225Z,0.90
2023-12-07T16:54:07.220Z,0.90
2023-12-07T16:56:34.769Z,0.90
2023-12-07T16:59:01.495Z,0.90
2023-12-07T17:01:28.343Z,0.90
2023-12-07T17:03:55.351Z,0.90
2023-12-07T17:06:22.260Z,1.00
2023-12-07T17:08:53.106Z,1.00
2023-12-07T17:11:24.212Z,1.00
2023-12-07T17:13:50.975Z,1.00
2023-12-07T17:16:17.610Z,1.00
2023-12-07T17:18:44.409Z,1.00
2023-12-07T17:21:11.631Z,1.00
2023-12-07T17:23:39.635Z,1.00
2023-12-07T17:26:06.510Z,1.00
2023-12-07T17:28:33.121Z,1.00
2023-12-07T17:30:59.976Z,0.90
2023-12-07T17:33:26.707Z,0.90
2023-12-07T17:35:53.475Z,0.90
2023-12-07T17:38:20.176Z,0.90
2023-12-07T17:40:46.804Z,0.90
2023-12-07T17:43:13.497Z,0.80
2023-12-07T17:45:41.244Z,0.90
2023-12-07T17:48:12.538Z,0.80
2023-12-07T17:50:42.746Z,0.90
2023-12-07T17:53:09.445Z,0.90
2023-12-07T17:55:36.152Z,0.90
2023-12-07T17:58:02.862Z,0.90
2023-12-07T18:00:29.555Z,0.90
2023-12-07T18:02:56.424Z,1.00
2023-12-07T18:05:23.234Z,0.90
2023-12-07T18:07:49.999Z,0.90
2023-12-07T18:10:16.817Z,0.90
2023-12-07T18:12:43.575Z,1.00
2023-12-07T18:15:10.972Z,1.00
2023-12-07T18:17:39.656Z,1.00
2023-12-07T18:20:07.058Z,1.00
2023-12-07T18:22:33.738Z,1.00
2023-12-07T18:25:00.496Z,1.00
2023-12-07T18:27:27.411Z,1.00
2023-12-07T18:29:54.167Z,1.00
2023-12-07T18:32:20.939Z,1.00
2023-12-07T18:34:47.700Z,1.00
2023-12-07T18:37:14.348Z,1.00
2023-12-07T18:39:41.074Z,1.00
2023-12-07T18:42:09.417Z,1.00
2023-12-07T18:44:36.631Z,0.90
2023-12-07T18:47:03.426Z,0.90
2023-12-07T18:49:30.339Z,0.80
2023-12-07T18:51:57.111Z,0.80
2023-12-07T18:54:25.059Z,0.80
2023-12-07T18:56:51.860Z,0.70
2023-12-07T18:59:18.553Z,0.70
2023-12-07T19:01:45.240Z,0.70
2023-12-07T19:04:11.968Z,0.70
2023-12-07T19:06:38.884Z,0.70
2023-12-07T19:09:07.642Z,0.70
2023-12-07T19:11:34.455Z,0.70
2023-12-07T19:14:01.198Z,0.70
2023-12-07T19:16:27.928Z,0.70
2023-12-07T19:18:54.767Z,0.80
2023-12-07T19:21:21.517Z,0.80
2023-12-07T19:23:48.275Z,0.80
2023-12-07T19:26:15.843Z,0.80
2023-12-07T19:28:42.519Z,0.80
2023-12-07T19:31:09.189Z,0.80
2023-12-07T19:33:36.128Z,0.80
2023-12-07T19:36:03.211Z,0.90
2023-12-07T19:38:30.432Z,0.80
2023-12-07T19:40:57.110Z,0.80
2023-12-07T19:43:23.911Z,0.80
2023-12-07T19:45:50.612Z,0.80
2023-12-07T19:48:17.383Z,0.80
2023-12-07T19:50:44.116Z,0.80
2023-12-07T19:53:10.832Z,0.80
2023-12-07T19:55:37.542Z,0.80
2023-12-07T19:58:05.548Z,0.80
2023-12-07T20:00:33.243Z,0.80
2023-12-07T20:03:00.169Z,0.70
2023-12-07T20:05:27.162Z,0.70
2023-12-07T20:07:53.960Z,0.70
2023-12-07T20:10:20.768Z,0.70
2023-12-07T20:12:50.784Z,0.70
2023-12-07T20:15:18.008Z,0.70
2023-12-07T20:17:45.631Z,0.70
2023-12-07T20:20:13.881Z,0.70
2023-12-07T20:22:40.634Z,0.70
2023-12-07T20:25:07.841Z,0.70
2023-12-07T20:27:35.466Z,0.60
2023-12-07T20:30:02.473Z,0.60
2023-12-07T20:32:29.542Z,0.60
2023-12-07T20:34:56.322Z,0.60
2023-12-07T20:37:24.031Z,0.60
2023-12-07T20:39:50.894Z,0.60
2023-12-07T20:42:17.719Z,0.60
2023-12-07T20:44:44.630Z,0.60
2023-12-07T20:47:11.564Z,0.60
2023-12-07T20:49:40.033Z,0.60
2023-12-07T20:52:08.192Z,0.60
2023-12-07T20:54:35.033Z,0.60
2023-12-07T20:57:01.901Z,0.60
2023-12-07T20:59:29.088Z,0.50
2023-12-07T21:01:56.181Z,0.60
2023-12-07T21:04:26.448Z,0.50
2023-12-07T21:06:53.407Z,0.50
2023-12-07T21:09:20.133Z,0.50
2023-12-07T21:11:46.791Z,0.40
2023-12-07T21:14:13.662Z,0.40
2023-12-07T21:16:44.125Z,0.40
2023-12-07T21:19:11.339Z,0.40
2023-12-07T21:21:38.087Z,0.40
2023-12-07T21:24:05.168Z,0.40
2023-12-07T21:26:31.910Z,0.40
2023-12-07T21:28:58.686Z,0.40
2023-12-07T21:31:25.497Z,0.40
2023-12-07T21:33:52.413Z,0.40
2023-12-07T21:36:19.264Z,0.40
2023-12-07T21:38:46.329Z,0.40
2023-12-07T21:41:13.278Z,0.30
2023-12-07T21:43:40.041Z,0.40
2023-12-07T21:46:06.775Z,0.30
2023-12-07T21:48:33.634Z,0.30
2023-12-07T21:51:01.543Z,0.30
2023-12-07T21:53:28.661Z,0.30
2023-12-07T21:55:55.382Z,0.40
2023-12-07T21:58:22.046Z,0.30
2023-12-07T22:00:49.705Z,0.30
2023-12-07T22:03:16.376Z,0.30
2023-12-07T22:05:43.149Z,0.30
2023-12-07T22:08:09.950Z,0.30
2023-12-07T22:10:36.641Z,0.20
2023-12-07T22:13:03.348Z,0.20
2023-12-07T22:15:30.114Z,0.20
2023-12-07T22:17:56.884Z,0.20
2023-12-07T22:20:30.653Z,0.20
2023-12-07T22:22:57.386Z,0.20
2023-12-07T22:25:24.117Z,0.10
2023-12-07T22:27:50.789Z,0.20
2023-12-07T22:30:18.236Z,0.10
2023-12-07T22:32:46.505Z,0.10
2023-12-07T22:35:13.761Z,0.20
2023-12-07T22:37:40.703Z,0.20
2023-12-07T22:40:08.002Z,0.20
2023-12-07T22:42:34.661Z,0.20
2023-12-07T22:45:01.701Z,0.20
2023-12-07T22:47:28.912Z,0.20
2023-12-07T22:49:56.434Z,0.20
2023-12-07T22:52:23.381Z,0.20
2023-12-07T22:54:50.037Z,0.20
2023-12-07T22:57:16.823Z,0.30
2023-12-07T22:59:43.517Z,0.30
2023-12-07T23:02:10.378Z,0.30
2023-12-07T23:04:37.132Z,0.30
2023-12-07T23:07:03.946Z,0.30
2023-12-07T23:09:30.681Z,0.40
2023-12-07T23:11:57.411Z,0.40
2023-12-07T23:14:24.144Z,0.40
2023-12-07T23:16:50.808Z,0.40
2023-12-07T23:19:18.643Z,0.40
2023-12-07T23:21:45.567Z,0.40
2023-12-07T23:24:12.309Z,0.40
2023-12-07T23:26:43.368Z,0.50
2023-12-07T23:29:11.418Z,0.50
2023-12-07T23:31:38.276Z,0.50
2023-12-07T23:34:05.282Z,0.50
2023-12-07T23:36:32.428Z,0.50
2023-12-07T23:38:59.240Z,0.50
2023-12-07T23:41:25.931Z,0.50
2023-12-07T23:43:52.612Z,0.60
2023-12-07T23:46:19.994Z,0.60
2023-12-07T23:48:46.790Z,0.60
2023-12-07T23:51:13.633Z,0.60
2023-12-07T23:53:40.492Z,0.60
2023-12-07T23:56:07.929Z,0.60
2023-12-07T23:58:44.728Z,0.60
